»·PEaware :: BAW218K KDEN-EGLL

BAW218K :: KDEN-EGLL

FLIGHT INFORMATION

Flight Status: Arrived
Operator:
British Airways
More flights by this operator :: More flights under this callsign
Pilot: Andrew J. (13363)
Aircraft: Unknown
(B789)
More flights by this aircraft type
Origin: KDEN Denver Intl
United States
Destination: EGLL Heathrow
United Kingdom
More flights between these airports :: More routes between these airports
Route: RIONA SCAJ MANUP 5630N08000W 5830N07000W FASSA SINGA/M086F370 SAVRY 60N050W 61N040W 60N030W 58N020W SUNOT KESIX MIMKU/N0496F370 KELLY UL10 WAL UY53 NUGRA BNN1B
File this flight plan on PilotEdge
Remarks: PBN / A1B1C1D1L1O1S2 DOF / 180530 REG / N899SB EET / KZMP0037 CZWG0123 CZUL0243 CZQX0351 BGGL0424 60N050W0429 CZQX0459 61N040W0503 EGGX0539 58N020W0620 EGPX0703 EISN0712 EGPX0716 EGTT0726 OPR / BAW PER / D RALT / CYYR BGSF RMK / TCAS SIMBRIEF
Altitude:
(Current/Filed)
37,000ft
Speed:
(Current/Filed)
491kts
Departed: 29-May-18 11:20 PM
Arrived: 30-May-18 11:09 AM
Distance/Time
Traveled:
4045nm/11:49
Distance/Time
To Go:
Arrived

Flight Plot

Page will automatically refresh every two minutes.

Flight plan parsing failed; only flown route is shown


Map Options




Map Legend


Flown Route
Filed Route
Departure Airport
Arrival Airport
Navaid (VOR, NDB)
Fix

Horizontal Profiles

Position Reports

Time Latitude Longitude Heading Altitude Ground
Speed
29-May-18 23:19 39.776485 -104.607400 122 7826ft 234kts
29-May-18 23:20 39.777756 -104.520169 64 9762ft 285kts
29-May-18 23:21 39.804917 -104.418414 72 10178ft 327kts
29-May-18 23:22 39.877377 -104.369221 336 11188ft 346kts
29-May-18 23:23 39.977416 -104.382050 0 12214ft 378kts
29-May-18 23:24 40.077760 -104.405867 330 15329ft 372kts
29-May-18 23:25 40.171906 -104.473894 336 17492ft 403kts
29-May-18 23:26 40.283242 -104.499717 8 20071ft 429kts
29-May-18 23:27 40.389552 -104.417779 34 22266ft 456kts
29-May-18 23:28 40.492613 -104.318547 33 24363ft 466kts
29-May-18 23:29 40.601148 -104.222461 21 26085ft 474kts
29-May-18 23:30 40.724267 -104.154796 20 27742ft 486kts
29-May-18 23:31 40.849700 -104.083702 19 29383ft 497kts
29-May-18 23:32 40.978691 -104.010541 20 31014ft 510kts
29-May-18 23:33 41.108554 -103.936536 19 33347ft 503kts
29-May-18 23:34 41.237249 -103.862937 19 35190ft 503kts
29-May-18 23:35 41.365626 -103.789195 19 36833ft 502kts
29-May-18 23:36 41.493798 -103.715231 19 36982ft 502kts
29-May-18 23:37 41.621942 -103.640960 19 36958ft 502kts
29-May-18 23:38 41.750400 -103.566203 19 36960ft 502kts
29-May-18 23:39 41.876262 -103.485392 28 36958ft 505kts
29-May-18 23:40 41.983841 -103.363320 42 36930ft 513kts
29-May-18 23:41 42.084974 -103.227243 41 36934ft 513kts
29-May-18 23:42 42.185977 -103.091601 41 36899ft 513kts
29-May-18 23:43 42.287058 -102.955271 41 36895ft 513kts
29-May-18 23:44 42.387616 -102.818993 41 36880ft 512kts
29-May-18 23:45 42.487940 -102.682373 42 36870ft 512kts
29-May-18 23:46 42.588369 -102.544955 42 36871ft 512kts
29-May-18 23:47 42.688323 -102.407533 42 36840ft 512kts
29-May-18 23:48 42.788115 -102.269626 42 36841ft 512kts
29-May-18 23:49 42.888114 -102.130791 42 36846ft 512kts
29-May-18 23:50 42.987596 -101.991975 42 36834ft 512kts
29-May-18 23:51 43.087303 -101.852156 43 36820ft 516kts
29-May-18 23:52 43.187602 -101.710816 43 36814ft 517kts
29-May-18 23:53 43.287619 -101.569140 44 36789ft 518kts
29-May-18 23:54 43.388005 -101.426251 44 36770ft 519kts
29-May-18 23:55 43.488048 -101.283095 45 36754ft 520kts
29-May-18 23:56 43.588121 -101.139143 45 36755ft 521kts
29-May-18 23:57 43.688734 -100.993750 46 36749ft 523kts
29-May-18 23:58 43.789163 -100.847830 46 36733ft 526kts
29-May-18 23:59 43.889929 -100.700641 47 36726ft 529kts
30-May-18 00:00 43.991450 -100.551552 48 36722ft 531kts
30-May-18 00:01 44.092858 -100.401844 48 36699ft 533kts
30-May-18 00:02 44.194379 -100.251164 48 36693ft 535kts
30-May-18 00:03 44.296233 -100.099156 49 36696ft 535kts
30-May-18 00:04 44.397606 -99.947025 49 36700ft 536kts
30-May-18 00:05 44.498909 -99.794235 49 36691ft 536kts
30-May-18 00:06 44.600359 -99.640326 50 36695ft 536kts
30-May-18 00:07 44.701200 -99.486516 50 36707ft 535kts
30-May-18 00:08 44.802069 -99.331753 50 36707ft 535kts
30-May-18 00:09 44.902323 -99.177155 51 36726ft 534kts
30-May-18 00:10 45.002244 -99.022166 51 36720ft 534kts
30-May-18 00:11 45.102262 -98.866164 52 36710ft 534kts
30-May-18 00:12 45.201709 -98.710180 52 36707ft 534kts
30-May-18 00:13 45.300908 -98.553712 52 36718ft 534kts
30-May-18 00:14 45.400256 -98.396088 53 36713ft 534kts
30-May-18 00:15 45.510299 -98.254775 45 36699ft 536kts
30-May-18 00:16 45.623073 -98.114861 45 36717ft 539kts
30-May-18 00:17 45.736500 -97.973894 46 36725ft 539kts
30-May-18 00:18 45.849466 -97.832583 46 36719ft 540kts
30-May-18 00:19 45.962636 -97.690254 46 36712ft 539kts
30-May-18 00:20 46.075164 -97.547927 46 36724ft 539kts
30-May-18 00:21 46.187524 -97.404968 46 36727ft 539kts
30-May-18 00:22 46.300068 -97.260967 45 36718ft 539kts
30-May-18 00:23 46.412017 -97.116936 45 36733ft 539kts
30-May-18 00:24 46.523747 -96.972353 45 36740ft 539kts
30-May-18 00:25 46.630864 -96.832929 45 36728ft 539kts
30-May-18 00:26 46.742256 -96.687156 45 36722ft 539kts
30-May-18 00:27 46.853358 -96.540913 45 36733ft 538kts
30-May-18 00:28 46.964618 -96.393577 45 36736ft 538kts
30-May-18 00:29 47.075409 -96.246023 45 36753ft 539kts
30-May-18 00:30 47.186096 -96.097742 45 36763ft 539kts
30-May-18 00:31 47.297009 -95.948228 45 36760ft 539kts
30-May-18 00:32 47.407283 -95.798755 45 36755ft 539kts
30-May-18 00:33 47.517700 -95.648182 45 36762ft 539kts
30-May-18 00:34 47.627537 -95.497487 45 36769ft 539kts
30-May-18 00:35 47.737042 -95.346348 45 36768ft 538kts
30-May-18 00:36 47.846572 -95.194251 45 36766ft 537kts
30-May-18 00:37 47.955180 -95.042522 45 36778ft 535kts
30-May-18 00:38 48.063281 -94.890520 44 36776ft 534kts
30-May-18 00:39 48.153502 -94.763087 44 36767ft 533kts
30-May-18 00:40 48.260856 -94.610493 44 36774ft 532kts
30-May-18 00:41 48.367746 -94.457664 44 36779ft 530kts
30-May-18 00:42 48.474517 -94.304066 44 36772ft 529kts
30-May-18 00:43 48.598305 -94.124766 44 36773ft 529kts
30-May-18 00:44 48.704612 -93.969781 44 36782ft 530kts
30-May-18 00:45 48.810367 -93.814691 44 36794ft 530kts
30-May-18 00:46 48.898373 -93.684856 44 36782ft 530kts
30-May-18 00:47 49.004299 -93.527662 44 36787ft 531kts
30-May-18 00:48 49.109892 -93.370038 44 36794ft 532kts
30-May-18 00:49 49.215398 -93.211513 44 36803ft 533kts
30-May-18 00:50 49.321100 -93.051688 44 36791ft 533kts
30-May-18 00:51 49.426242 -92.891684 44 36787ft 533kts
30-May-18 00:52 49.531177 -92.730985 44 36795ft 533kts
30-May-18 00:53 49.636214 -92.569088 43 36801ft 533kts
30-May-18 00:54 49.740698 -92.406994 43 36796ft 533kts
30-May-18 00:55 49.845061 -92.244018 43 36791ft 533kts
30-May-18 00:56 49.948276 -92.081838 43 36808ft 534kts
30-May-18 00:57 50.047413 -91.910197 50 36815ft 535kts
30-May-18 00:58 50.140066 -91.729076 50 36809ft 535kts
30-May-18 00:59 50.233260 -91.547136 50 36806ft 536kts
30-May-18 01:00 50.326043 -91.364749 50 36809ft 537kts
30-May-18 01:01 50.419059 -91.180641 50 36823ft 538kts
30-May-18 01:02 50.511567 -90.996128 50 36823ft 539kts
30-May-18 01:03 50.603918 -90.810764 50 36820ft 539kts
30-May-18 01:04 50.696300 -90.623969 50 36835ft 539kts
30-May-18 01:05 50.788058 -90.437030 50 36841ft 539kts
30-May-18 01:06 50.879947 -90.248556 50 36837ft 540kts
30-May-18 01:07 50.971347 -90.059662 50 36834ft 541kts
30-May-18 01:08 51.055914 -89.861800 56 36835ft 543kts
30-May-18 01:09 51.137365 -89.658246 55 36846ft 545kts
30-May-18 01:10 51.218370 -89.454185 55 36841ft 546kts
30-May-18 01:11 51.299228 -89.249090 56 36828ft 547kts
30-May-18 01:12 51.380071 -89.042365 56 36835ft 547kts
30-May-18 01:13 51.460309 -88.835529 56 36837ft 547kts
30-May-18 01:14 51.540243 -88.627789 56 36809ft 548kts
30-May-18 01:15 51.620251 -88.418171 56 36807ft 549kts
30-May-18 01:16 51.699834 -88.207952 56 36796ft 551kts
30-May-18 01:17 51.779248 -87.996406 56 36783ft 552kts
30-May-18 01:18 51.858655 -87.783170 56 36783ft 553kts
30-May-18 01:19 51.937417 -87.569824 56 36792ft 552kts
30-May-18 01:20 52.015932 -87.355371 56 36791ft 551kts
30-May-18 01:21 52.093913 -87.140604 55 36783ft 553kts
30-May-18 01:22 52.171653 -86.924597 55 36783ft 554kts
30-May-18 01:23 52.249220 -86.707227 55 36786ft 553kts
30-May-18 01:24 52.325978 -86.490187 56 36788ft 552kts
30-May-18 01:25 52.402185 -86.272984 56 36775ft 550kts
30-May-18 01:26 52.478069 -86.054696 56 36769ft 550kts
30-May-18 01:27 52.553274 -85.836568 56 36762ft 550kts
30-May-18 01:28 52.628128 -85.617467 56 36764ft 550kts
30-May-18 01:29 52.702894 -85.396626 56 36772ft 552kts
30-May-18 01:30 52.777206 -85.175273 56 36793ft 552kts
30-May-18 01:31 52.851185 -84.952828 56 36784ft 553kts
30-May-18 01:32 52.925067 -84.728693 56 36778ft 553kts
30-May-18 01:33 52.998305 -84.504454 56 36782ft 553kts
30-May-18 01:34 53.071405 -84.278611 56 36794ft 554kts
30-May-18 01:35 53.143903 -84.052482 56 36790ft 555kts
30-May-18 01:36 53.216039 -83.825366 55 36789ft 555kts
30-May-18 01:37 53.287977 -83.596818 55 36797ft 554kts
30-May-18 01:38 53.359165 -83.368456 56 36808ft 554kts
30-May-18 01:39 53.429937 -83.139268 56 36804ft 554kts
30-May-18 01:40 53.500441 -82.908752 57 36797ft 552kts
30-May-18 01:41 53.569888 -82.679479 57 36806ft 550kts
30-May-18 01:42 53.638733 -82.450036 56 36813ft 549kts
30-May-18 01:43 53.707306 -82.219244 56 36820ft 549kts
30-May-18 01:44 53.775251 -81.988344 56 36810ft 549kts
30-May-18 01:45 53.842970 -81.755947 56 36805ft 549kts
30-May-18 01:46 53.910021 -81.523574 57 36815ft 549kts
30-May-18 01:47 53.976483 -81.290885 57 36823ft 548kts
30-May-18 01:48 54.042712 -81.056780 57 36814ft 549kts
30-May-18 01:49 54.108322 -80.822450 57 36818ft 549kts
30-May-18 01:50 54.173383 -80.587696 57 36832ft 547kts
30-May-18 01:51 54.238016 -80.352070 57 36864ft 546kts
30-May-18 01:52 54.301796 -80.117254 57 36863ft 544kts
30-May-18 01:53 54.363025 -79.880318 60 36869ft 544kts
30-May-18 01:54 54.421475 -79.639661 59 36886ft 546kts
30-May-18 01:55 54.479506 -79.398959 60 36887ft 546kts
30-May-18 01:56 54.537031 -79.157716 60 36901ft 545kts
30-May-18 01:57 54.594225 -78.915098 60 36891ft 545kts
30-May-18 01:58 54.650614 -78.673211 60 36892ft 543kts
30-May-18 01:59 54.706625 -78.430171 60 36890ft 543kts
30-May-18 02:00 54.761849 -78.187879 61 36889ft 541kts
30-May-18 02:01 54.816517 -77.945131 61 36871ft 541kts
30-May-18 02:02 54.870774 -77.701391 61 36866ft 540kts
30-May-18 02:03 54.924295 -77.458182 61 36873ft 539kts
30-May-18 02:04 54.977303 -77.214483 62 36880ft 539kts
30-May-18 02:05 55.029981 -76.969364 62 36874ft 539kts
30-May-18 02:06 55.081964 -76.724503 62 36881ft 539kts
30-May-18 02:07 55.133468 -76.479066 62 36898ft 539kts
30-May-18 02:08 55.184613 -76.232213 63 36905ft 539kts
30-May-18 02:09 55.235157 -75.985259 63 36907ft 539kts
30-May-18 02:10 55.285315 -75.737056 63 36926ft 538kts
30-May-18 02:11 55.334767 -75.489420 64 36878ft 538kts
30-May-18 02:12 55.383702 -75.241133 64 36896ft 538kts
30-May-18 02:13 55.432251 -74.991672 65 36900ft 537kts
30-May-18 02:14 55.480055 -74.742705 65 36900ft 537kts
30-May-18 02:15 55.527369 -74.493187 65 36916ft 537kts
30-May-18 02:16 55.574345 -74.242102 65 36923ft 537kts
30-May-18 02:17 55.620673 -73.991167 65 36916ft 538kts
30-May-18 02:18 55.666470 -73.739670 66 36927ft 537kts
30-May-18 02:19 55.711882 -73.486987 66 36963ft 537kts
30-May-18 02:20 55.756604 -73.234564 66 36999ft 536kts
30-May-18 02:21 55.800932 -72.980916 66 36992ft 536kts
30-May-18 02:22 55.844528 -72.727886 66 36989ft 536kts
30-May-18 02:23 55.887618 -72.474268 66 37001ft 536kts
30-May-18 02:24 55.930339 -72.219067 66 37007ft 536kts
30-May-18 02:25 55.972428 -71.963927 67 36998ft 537kts
30-May-18 02:26 56.014030 -71.708046 67 37041ft 537kts
30-May-18 02:27 56.055297 -71.450470 67 37043ft 537kts
30-May-18 02:28 56.095866 -71.193102 67 37052ft 538kts
30-May-18 02:29 56.135997 -70.934904 67 37057ft 538kts
30-May-18 02:30 56.175672 -70.675394 67 37050ft 538kts
30-May-18 02:31 56.214631 -70.416554 67 37047ft 537kts
30-May-18 02:32 56.253138 -70.156610 68 37060ft 536kts
30-May-18 02:33 56.290912 -69.897405 68 37042ft 536kts
30-May-18 02:34 56.328152 -69.637638 68 37020ft 536kts
30-May-18 02:35 56.364973 -69.376457 68 37018ft 536kts
30-May-18 02:36 56.401125 -69.115694 68 37026ft 536kts
30-May-18 02:37 56.436735 -68.854292 68 37025ft 536kts
30-May-18 02:38 56.471869 -68.591889 68 37015ft 535kts
30-May-18 02:39 56.506294 -68.330214 69 37009ft 535kts
30-May-18 02:40 56.540119 -68.068483 69 36992ft 534kts
30-May-18 02:41 56.573434 -67.805778 69 36988ft 533kts
30-May-18 02:42 56.606116 -67.543569 69 36995ft 534kts
30-May-18 02:43 56.638266 -67.280513 70 36998ft 534kts
30-May-18 02:44 56.670032 -67.016048 69 36986ft 535kts
30-May-18 02:45 56.702941 -66.752729 69 36995ft 534kts
30-May-18 02:46 56.735542 -66.488446 69 36967ft 534kts
30-May-18 02:47 56.767489 -66.224595 70 36974ft 534kts
30-May-18 02:48 56.798836 -65.960455 70 36966ft 533kts
30-May-18 02:49 56.829692 -65.695279 71 36963ft 533kts
30-May-18 02:50 56.859911 -65.430731 71 36950ft 533kts
30-May-18 02:51 56.889555 -65.165473 71 36936ft 533kts
30-May-18 02:52 56.918744 -64.898757 71 36975ft 534kts
30-May-18 02:53 56.947360 -64.632336 71 36967ft 534kts
30-May-18 02:54 56.975308 -64.365605 72 36960ft 534kts
30-May-18 02:55 57.002817 -64.097466 72 36960ft 534kts
30-May-18 02:56 57.029740 -63.829538 72 36919ft 534kts
30-May-18 02:57 57.056037 -63.561480 73 36949ft 534kts
30-May-18 02:58 57.081868 -63.292246 73 36945ft 533kts
30-May-18 02:59 57.106935 -63.023925 73 36945ft 532kts
30-May-18 03:00 57.131476 -62.754670 74 36952ft 532kts
30-May-18 03:01 57.155401 -62.485931 74 36976ft 532kts
30-May-18 03:02 57.174921 -62.262062 74 36980ft 531kts
30-May-18 03:03 57.197790 -61.992347 75 36982ft 531kts
30-May-18 03:04 57.219998 -61.723686 76 36987ft 530kts
30-May-18 03:05 57.241649 -61.454738 76 37002ft 530kts
30-May-18 03:06 57.262758 -61.184570 76 36992ft 530kts
30-May-18 03:07 57.283236 -60.915077 77 36987ft 530kts
30-May-18 03:08 57.303125 -60.645408 78 36994ft 530kts
30-May-18 03:09 57.322499 -60.374554 78 36994ft 530kts
30-May-18 03:10 57.341202 -60.104376 79 36981ft 530kts
30-May-18 03:11 57.359375 -59.833890 79 36993ft 530kts
30-May-18 03:12 57.376991 -59.562183 79 37000ft 530kts
30-May-18 03:13 57.393961 -59.291227 80 36992ft 530kts
30-May-18 03:14 57.410433 -59.018957 80 36975ft 530kts
30-May-18 03:15 57.426243 -58.747383 81 36955ft 530kts
30-May-18 03:16 57.441486 -58.475403 81 36958ft 530kts
30-May-18 03:17 57.456204 -58.202131 81 36984ft 531kts
30-May-18 03:18 57.473421 -57.929982 78 36983ft 531kts
30-May-18 03:19 57.500134 -57.660564 77 37000ft 530kts
30-May-18 03:20 57.525849 -57.390244 78 36954ft 529kts
30-May-18 03:21 57.551010 -57.120689 78 36976ft 529kts
30-May-18 03:22 57.575579 -56.850869 79 36949ft 529kts
30-May-18 03:23 57.599651 -56.579772 79 36955ft 529kts
30-May-18 03:24 57.623063 -56.309246 79 36949ft 529kts
30-May-18 03:25 57.645903 -56.038327 80 36946ft 529kts
30-May-18 03:26 57.668233 -55.766168 80 36951ft 529kts
30-May-18 03:27 57.689917 -55.494492 81 36910ft 529kts
30-May-18 03:28 57.711075 -55.221750 81 36918ft 529kts
30-May-18 03:29 57.731563 -54.949774 81 36921ft 528kts
30-May-18 03:30 57.751463 -54.677621 82 36953ft 528kts
30-May-18 03:31 57.770808 -54.404415 82 36923ft 528kts
30-May-18 03:32 57.789527 -54.132136 83 36931ft 527kts
30-May-18 03:33 57.807622 -53.859769 83 36925ft 527kts
30-May-18 03:34 57.825188 -53.586199 84 36915ft 527kts
30-May-18 03:35 57.842128 -53.313249 84 36921ft 527kts
30-May-18 03:36 57.858468 -53.040131 85 36924ft 527kts
30-May-18 03:37 57.874246 -52.765940 85 36915ft 527kts
30-May-18 03:38 57.889415 -52.492612 86 36959ft 526kts
30-May-18 03:39 57.903954 -52.219327 86 36969ft 526kts
30-May-18 03:40 57.917950 -51.945208 87 36977ft 525kts
30-May-18 03:41 57.931302 -51.671951 87 36972ft 525kts
30-May-18 03:42 57.944060 -51.398492 87 37007ft 525kts
30-May-18 03:43 57.956265 -51.124168 88 36996ft 524kts
30-May-18 03:44 57.967822 -50.851055 88 36992ft 523kts
30-May-18 03:45 57.978814 -50.577247 89 37000ft 523kts
30-May-18 03:46 57.989133 -50.304651 90 36994ft 522kts
30-May-18 03:47 58.001050 -50.032579 86 36970ft 522kts
30-May-18 03:48 58.033260 -49.764358 77 36968ft 526kts
30-May-18 03:49 58.070611 -49.497108 79 36978ft 527kts
30-May-18 03:50 58.107389 -49.229051 79 36968ft 527kts
30-May-18 03:51 58.143671 -48.959826 79 36963ft 526kts
30-May-18 03:52 58.179198 -48.691492 80 36970ft 525kts
30-May-18 03:53 58.214022 -48.423180 80 36974ft 524kts
30-May-18 03:54 58.248371 -48.153828 80 36963ft 524kts
30-May-18 03:55 58.282015 -47.885172 80 36960ft 523kts
30-May-18 03:56 58.315206 -47.615320 81 36969ft 523kts
30-May-18 03:57 58.347628 -47.346166 81 36970ft 522kts
30-May-18 03:58 58.379474 -47.076823 81 36960ft 521kts
30-May-18 03:59 58.410872 -46.806306 81 36959ft 521kts
30-May-18 04:00 58.441502 -46.536570 81 36969ft 520kts
30-May-18 04:01 58.471552 -46.266705 82 36992ft 520kts
30-May-18 04:02 58.501103 -45.995652 82 36989ft 520kts
30-May-18 04:03 58.529995 -45.725138 82 36978ft 519kts
30-May-18 04:04 58.558385 -45.453395 82 36983ft 519kts
30-May-18 04:05 58.586097 -45.182160 82 37016ft 519kts
30-May-18 04:06 58.613224 -44.910750 83 37017ft 519kts
30-May-18 04:07 58.639847 -44.638353 83 37027ft 518kts
30-May-18 04:08 58.665777 -44.366607 83 37026ft 518kts
30-May-18 04:09 58.691104 -44.094622 83 37018ft 518kts
30-May-18 04:10 58.715961 -43.821410 84 37020ft 517kts
30-May-18 04:11 58.740159 -43.548424 84 37030ft 518kts
30-May-18 04:12 58.763881 -43.274136 84 37024ft 518kts
30-May-18 04:13 58.786906 -43.000675 84 37017ft 517kts
30-May-18 04:14 58.809343 -42.727164 84 37025ft 516kts
30-May-18 04:15 58.831230 -42.452816 85 37033ft 516kts
30-May-18 04:16 58.852440 -42.179082 85 37026ft 516kts
30-May-18 04:17 58.873088 -41.905323 85 37023ft 515kts
30-May-18 04:18 58.893177 -41.630507 85 37034ft 515kts
30-May-18 04:19 58.912621 -41.356498 85 37037ft 514kts
30-May-18 04:20 58.931463 -41.082448 86 37029ft 514kts
30-May-18 04:21 58.949761 -40.807442 86 37028ft 514kts
30-May-18 04:22 58.967419 -40.533267 86 36997ft 513kts
30-May-18 04:23 58.984529 -40.258123 86 37002ft 513kts
30-May-18 04:24 59.000582 -39.983534 87 37014ft 512kts
30-May-18 04:25 59.010888 -39.708715 88 37010ft 511kts
30-May-18 04:26 59.020672 -39.433261 88 37005ft 510kts
30-May-18 04:27 59.029677 -39.161691 89 37008ft 510kts
30-May-18 04:28 59.038256 -38.884733 89 37017ft 509kts
30-May-18 04:29 59.046209 -38.609923 89 37014ft 508kts
30-May-18 04:30 59.053536 -38.336148 89 37007ft 508kts
30-May-18 04:31 59.060276 -38.062644 89 37017ft 507kts
30-May-18 04:32 59.066455 -37.788646 89 37024ft 505kts
30-May-18 04:33 59.072017 -37.516121 90 37016ft 505kts
30-May-18 04:34 59.077012 -37.243876 90 37013ft 504kts
30-May-18 04:35 59.081435 -36.971001 90 37053ft 503kts
30-May-18 04:36 59.085267 -36.699411 90 37104ft 503kts
30-May-18 04:37 59.088541 -36.427197 90 37097ft 502kts
30-May-18 04:38 59.091233 -36.156161 90 37108ft 502kts
30-May-18 04:39 59.093358 -35.885407 90 37114ft 500kts
30-May-18 04:40 59.094923 -35.614427 90 37105ft 499kts
30-May-18 04:41 59.095913 -35.344949 90 37107ft 498kts
30-May-18 04:42 59.096359 -35.075880 90 37119ft 497kts
30-May-18 04:43 59.096226 -34.806386 91 37116ft 496kts
30-May-18 04:44 59.095554 -34.538354 91 37108ft 496kts
30-May-18 04:45 59.094323 -34.269756 91 37116ft 495kts
30-May-18 04:46 59.092545 -34.002219 91 37124ft 495kts
30-May-18 04:47 59.090224 -33.735430 91 37124ft 493kts
30-May-18 04:48 59.087352 -33.468639 91 37114ft 492kts
30-May-18 04:49 59.083955 -33.203326 92 37117ft 491kts
30-May-18 04:50 59.080023 -32.938607 92 37144ft 490kts
30-May-18 04:51 59.075548 -32.673566 92 37155ft 489kts
30-May-18 04:52 59.070565 -32.409952 92 37164ft 488kts
30-May-18 04:53 59.065040 -32.146725 92 37160ft 488kts
30-May-18 04:54 59.058980 -31.882997 93 37154ft 487kts
30-May-18 04:55 59.052423 -31.620977 93 37162ft 486kts
30-May-18 04:56 59.045342 -31.359381 94 37172ft 485kts
30-May-18 04:57 59.037728 -31.097302 94 37167ft 485kts
30-May-18 04:58 59.029602 -30.836393 94 37222ft 484kts
30-May-18 04:59 59.020939 -30.574927 95 37227ft 484kts
30-May-18 05:00 59.011794 -30.314731 95 37239ft 484kts
30-May-18 05:01 59.002125 -30.054886 95 37239ft 483kts
30-May-18 05:02 58.987795 -29.795529 98 37250ft 482kts
30-May-18 05:03 58.971894 -29.538060 99 37244ft 481kts
30-May-18 05:04 58.955505 -29.281006 99 37236ft 481kts
30-May-18 05:05 58.938560 -29.023450 99 37244ft 481kts
30-May-18 05:06 58.921189 -28.767223 100 37252ft 480kts
30-May-18 05:07 58.903304 -28.511533 100 37244ft 480kts
30-May-18 05:08 58.884911 -28.255590 100 37208ft 479kts
30-May-18 05:09 58.866095 -28.001218 100 37218ft 478kts
30-May-18 05:10 58.846728 -27.746652 101 37217ft 478kts
30-May-18 05:11 58.826962 -27.493470 101 37206ft 477kts
30-May-18 05:12 58.806692 -27.240497 101 37203ft 478kts
30-May-18 05:13 58.785852 -26.986860 102 37212ft 478kts
30-May-18 05:14 58.764567 -26.734205 102 37215ft 478kts
30-May-18 05:15 58.742805 -26.482019 102 37205ft 477kts
30-May-18 05:16 58.720514 -26.229706 103 37201ft 477kts
30-May-18 05:17 58.701666 -26.020815 103 37214ft 476kts
30-May-18 05:18 58.678617 -25.770760 103 37208ft 476kts
30-May-18 05:19 58.654996 -25.520035 103 37200ft 476kts
30-May-18 05:20 58.630957 -25.270241 103 37204ft 477kts
30-May-18 05:21 58.606380 -25.020381 104 37213ft 477kts
30-May-18 05:22 58.581185 -24.769591 104 37206ft 478kts
30-May-18 05:23 58.555608 -24.520000 104 37197ft 478kts
30-May-18 05:24 58.525098 -24.228838 104 37197ft 477kts
30-May-18 05:25 58.498545 -23.980841 104 37205ft 476kts
30-May-18 05:26 58.476080 -23.774669 104 37199ft 476kts
30-May-18 05:27 58.448575 -23.526722 104 37193ft 476kts
30-May-18 05:28 58.420646 -23.279448 104 37209ft 478kts
30-May-18 05:29 58.392157 -23.032015 105 37211ft 479kts
30-May-18 05:30 58.363042 -22.783572 105 37200ft 480kts
30-May-18 05:31 58.333486 -22.536032 105 37210ft 480kts
30-May-18 05:32 58.303463 -22.288886 105 37223ft 480kts
30-May-18 05:33 58.272884 -22.041529 105 37227ft 479kts
30-May-18 05:34 58.241974 -21.795712 105 37216ft 479kts
30-May-18 05:35 58.210577 -21.550307 105 37221ft 479kts
30-May-18 05:36 58.178548 -21.304092 105 37221ft 481kts
30-May-18 05:37 58.146063 -21.058410 105 37230ft 482kts
30-May-18 05:38 58.113028 -20.812557 105 37226ft 483kts
30-May-18 05:39 58.079329 -20.565809 105 37214ft 484kts
30-May-18 05:40 58.045258 -20.320265 105 37215ft 484kts
30-May-18 05:41 58.010604 -20.074434 106 37185ft 484kts
30-May-18 05:42 57.980493 -19.827441 103 37213ft 484kts
30-May-18 05:43 57.952253 -19.579820 103 37204ft 484kts
30-May-18 05:44 57.923380 -19.331999 103 37211ft 484kts
30-May-18 05:45 57.894121 -19.085379 103 37216ft 484kts
30-May-18 05:46 57.864370 -18.839071 103 37204ft 484kts
30-May-18 05:47 57.834001 -18.592014 103 37200ft 485kts
30-May-18 05:48 57.803184 -18.345608 103 37208ft 486kts
30-May-18 05:49 57.771790 -18.098915 104 37204ft 488kts
30-May-18 05:50 57.739784 -17.851488 104 37193ft 488kts
30-May-18 05:51 57.707356 -17.605052 104 37191ft 488kts
30-May-18 05:52 57.674358 -17.358499 104 37196ft 487kts
30-May-18 05:53 57.641083 -17.113625 104 37193ft 487kts
30-May-18 05:54 57.607340 -16.869348 105 37180ft 487kts
30-May-18 05:55 57.573010 -16.624704 105 37180ft 487kts
30-May-18 05:56 57.538299 -16.381156 105 37186ft 487kts
30-May-18 05:57 57.503107 -16.137932 105 37178ft 487kts
30-May-18 05:58 57.467302 -15.894275 106 37165ft 487kts
30-May-18 05:59 57.431154 -15.651923 106 37189ft 487kts
30-May-18 06:00 57.394553 -15.410059 106 37181ft 487kts
30-May-18 06:01 57.357395 -15.168159 106 37165ft 486kts
30-May-18 06:02 57.319951 -14.927808 107 37126ft 486kts
30-May-18 06:03 57.281967 -14.687476 107 37132ft 485kts
30-May-18 06:04 57.243689 -14.448626 107 37133ft 485kts
30-May-18 06:05 57.204968 -14.210381 107 37123ft 485kts
30-May-18 06:06 57.165705 -13.971962 108 37118ft 485kts
30-May-18 06:07 57.126088 -13.734770 108 37125ft 485kts
30-May-18 06:08 57.086028 -13.497978 108 37126ft 485kts
30-May-18 06:09 57.045363 -13.260857 108 37115ft 485kts
30-May-18 06:10 56.986281 -13.042084 132 37132ft 481kts
30-May-18 06:11 56.888100 -12.879129 146 37113ft 477kts
30-May-18 06:12 56.799655 -12.696425 127 37112ft 482kts
30-May-18 06:13 56.722576 -12.497099 117 37131ft 484kts
30-May-18 06:14 56.663559 -12.276241 118 37115ft 484kts
30-May-18 06:15 56.602648 -12.058243 118 37102ft 484kts
30-May-18 06:16 56.541459 -11.840707 118 37107ft 485kts
30-May-18 06:17 56.479621 -11.623011 118 37114ft 485kts
30-May-18 06:18 56.417608 -11.406716 118 37103ft 485kts
30-May-18 06:19 56.355221 -11.191106 118 37098ft 485kts
30-May-18 06:20 56.292234 -10.975446 118 37104ft 485kts
30-May-18 06:21 56.229105 -10.761281 118 37107ft 485kts
30-May-18 06:22 56.165558 -10.547640 118 37094ft 485kts
30-May-18 06:23 56.101473 -10.334203 119 37092ft 485kts
30-May-18 06:24 56.037358 -10.122479 119 37100ft 484kts
30-May-18 06:25 55.971305 -9.912610 121 37100ft 483kts
30-May-18 06:26 55.902622 -9.706968 121 37091ft 483kts
30-May-18 06:27 55.833777 -9.501865 121 37085ft 483kts
30-May-18 06:28 55.764373 -9.296852 121 37083ft 482kts
30-May-18 06:29 55.694957 -9.093526 121 37084ft 482kts
30-May-18 06:30 55.625267 -8.891114 121 37074ft 482kts
30-May-18 06:31 55.555066 -8.688920 121 37074ft 481kts
30-May-18 06:32 55.484880 -8.488420 122 37086ft 480kts
30-May-18 06:33 55.414466 -8.288879 122 37081ft 480kts
30-May-18 06:34 55.343524 -8.089521 122 37071ft 480kts
30-May-18 06:35 55.272524 -7.891608 122 37072ft 479kts
30-May-18 06:36 55.201085 -7.694049 123 37075ft 478kts
30-May-18 06:37 55.129666 -7.498151 123 37060ft 478kts
30-May-18 06:38 55.058065 -7.303339 123 37049ft 477kts
30-May-18 06:39 54.986058 -7.108870 123 37049ft 476kts
30-May-18 06:40 54.914097 -6.916124 123 37059ft 475kts
30-May-18 06:41 54.841917 -6.724279 123 37056ft 474kts
30-May-18 06:42 54.769350 -6.532861 123 37046ft 474kts
30-May-18 06:43 54.696868 -6.343178 124 37051ft 472kts
30-May-18 06:44 54.624079 -6.154134 124 37059ft 471kts
30-May-18 06:45 54.551439 -5.966889 124 37029ft 469kts
30-May-18 06:46 54.478775 -5.780967 124 37028ft 468kts
30-May-18 06:47 54.405713 -5.595441 124 37030ft 467kts
30-May-18 06:48 54.332640 -5.411259 124 37020ft 467kts
30-May-18 06:49 54.259277 -5.227718 124 37021ft 468kts
30-May-18 06:50 54.185375 -5.044187 124 37029ft 467kts
30-May-18 06:51 54.111532 -4.862114 124 37028ft 467kts
30-May-18 06:52 54.037515 -4.680943 124 37017ft 466kts
30-May-18 06:53 53.963037 -4.499992 124 37020ft 465kts
30-May-18 06:54 53.888747 -4.320707 124 37025ft 464kts
30-May-18 06:55 53.814204 -4.141529 124 37021ft 464kts
30-May-18 06:56 53.740463 -3.962700 124 37005ft 464kts
30-May-18 06:57 53.666399 -3.784601 124 37012ft 464kts
30-May-18 06:58 53.591859 -3.606441 124 37017ft 464kts
30-May-18 06:59 53.517270 -3.429340 124 37027ft 464kts
30-May-18 07:00 53.442892 -3.253967 124 37017ft 460kts
30-May-18 07:01 53.367931 -3.080097 125 37017ft 459kts
30-May-18 07:02 53.291698 -2.909235 125 36993ft 459kts
30-May-18 07:03 53.255137 -2.827551 125 36998ft 459kts
30-May-18 07:04 53.255137 -2.827551 125 36998ft 459kts
30-May-18 07:05 53.255137 -2.827551 125 36998ft 459kts
30-May-18 07:06 53.255137 -2.827551 125 36998ft 459kts
30-May-18 07:07 53.255137 -2.827551 125 36998ft 459kts
30-May-18 07:08 53.255137 -2.827551 125 36998ft 459kts
30-May-18 07:09 53.255137 -2.827551 125 36998ft 459kts
30-May-18 07:10 53.255137 -2.827551 125 36998ft 459kts
30-May-18 07:11 53.255137 -2.827551 125 36998ft 459kts
30-May-18 07:12 53.255137 -2.827551 125 36998ft 459kts
30-May-18 07:13 53.255137 -2.827551 125 36998ft 459kts
30-May-18 07:14 53.255137 -2.827551 125 36998ft 459kts
30-May-18 07:15 53.255137 -2.827551 125 36998ft 459kts
30-May-18 07:16 53.255137 -2.827551 125 36998ft 459kts
30-May-18 07:17 53.255137 -2.827551 125 36998ft 459kts
30-May-18 07:18 53.255137 -2.827551 125 36998ft 459kts
30-May-18 07:19 53.255137 -2.827551 125 36998ft 459kts
30-May-18 07:20 53.255137 -2.827551 125 36998ft 459kts
30-May-18 07:21 53.255137 -2.827551 125 36998ft 459kts
30-May-18 07:22 53.255137 -2.827551 125 36998ft 459kts
30-May-18 07:23 53.255137 -2.827551 125 36998ft 459kts
30-May-18 07:24 53.255137 -2.827551 125 36998ft 459kts
30-May-18 07:25 53.255137 -2.827551 125 36998ft 459kts
30-May-18 07:26 53.255137 -2.827551 125 36998ft 459kts
30-May-18 07:27 53.255137 -2.827551 125 36998ft 459kts
30-May-18 07:28 53.255137 -2.827551 125 36998ft 459kts
30-May-18 07:29 53.255137 -2.827551 125 36998ft 459kts
30-May-18 07:30 53.255137 -2.827551 125 36998ft 459kts
30-May-18 07:31 53.255137 -2.827551 125 36998ft 459kts
30-May-18 07:32 53.255137 -2.827551 125 36998ft 459kts
30-May-18 07:33 53.255137 -2.827551 125 36998ft 459kts
30-May-18 07:34 53.255137 -2.827551 125 36998ft 459kts
30-May-18 07:35 53.255137 -2.827551 125 36998ft 459kts
30-May-18 07:36 53.255137 -2.827551 125 36998ft 459kts
30-May-18 07:37 53.255137 -2.827551 125 36998ft 459kts
30-May-18 07:38 53.255137 -2.827551 125 36998ft 459kts
30-May-18 07:39 53.255137 -2.827551 125 36998ft 459kts
30-May-18 07:40 53.255137 -2.827551 125 36998ft 459kts
30-May-18 07:41 53.255137 -2.827551 125 36998ft 459kts
30-May-18 07:42 53.255137 -2.827551 125 36998ft 459kts
30-May-18 07:43 53.255137 -2.827551 125 36998ft 459kts
30-May-18 07:44 53.255137 -2.827551 125 36998ft 459kts
30-May-18 07:45 53.255137 -2.827551 125 36998ft 459kts
30-May-18 07:46 53.255137 -2.827551 125 36998ft 459kts
30-May-18 07:47 53.255137 -2.827551 125 36998ft 459kts
30-May-18 07:48 53.255137 -2.827551 125 36998ft 459kts
30-May-18 07:49 53.255137 -2.827551 125 36998ft 459kts
30-May-18 07:50 53.255137 -2.827551 125 36998ft 459kts
30-May-18 07:51 53.255137 -2.827551 125 36998ft 459kts
30-May-18 07:52 53.255137 -2.827551 125 36998ft 459kts
30-May-18 07:53 53.255137 -2.827551 125 36998ft 459kts
30-May-18 07:54 53.255137 -2.827551 125 36998ft 459kts
30-May-18 07:55 53.255137 -2.827551 125 36998ft 459kts
30-May-18 07:56 53.255137 -2.827551 125 36998ft 459kts
30-May-18 07:57 53.255137 -2.827551 125 36998ft 459kts
30-May-18 07:58 53.255137 -2.827551 125 36998ft 459kts
30-May-18 07:59 53.255137 -2.827551 125 36998ft 459kts
30-May-18 08:00 53.255137 -2.827551 125 36998ft 459kts
30-May-18 08:01 53.255137 -2.827551 125 36998ft 459kts
30-May-18 08:02 53.255137 -2.827551 125 36998ft 459kts
30-May-18 08:03 53.255137 -2.827551 125 36998ft 459kts
30-May-18 08:04 53.255137 -2.827551 125 36998ft 459kts
30-May-18 08:05 53.255137 -2.827551 125 36998ft 459kts
30-May-18 08:06 53.255137 -2.827551 125 36998ft 459kts
30-May-18 08:07 53.255137 -2.827551 125 36998ft 459kts
30-May-18 08:08 53.255137 -2.827551 125 36998ft 459kts
30-May-18 08:09 53.255137 -2.827551 125 36998ft 459kts
30-May-18 08:10 53.255137 -2.827551 125 36998ft 459kts
30-May-18 08:11 53.255137 -2.827551 125 36998ft 459kts
30-May-18 08:12 53.255137 -2.827551 125 36998ft 459kts
30-May-18 08:13 53.255137 -2.827551 125 36998ft 459kts
30-May-18 08:14 53.255137 -2.827551 125 36998ft 459kts
30-May-18 08:15 53.255137 -2.827551 125 36998ft 459kts
30-May-18 08:16 53.255137 -2.827551 125 36998ft 459kts
30-May-18 08:17 53.255137 -2.827551 125 36998ft 459kts
30-May-18 08:18 53.255137 -2.827551 125 36998ft 459kts
30-May-18 08:19 53.255137 -2.827551 125 36998ft 459kts
30-May-18 08:20 53.255137 -2.827551 125 36998ft 459kts
30-May-18 08:21 53.255137 -2.827551 125 36998ft 459kts
30-May-18 08:22 53.255137 -2.827551 125 36998ft 459kts
30-May-18 08:23 53.255137 -2.827551 125 36998ft 459kts
30-May-18 08:24 53.255137 -2.827551 125 36998ft 459kts
30-May-18 08:25 53.255137 -2.827551 125 36998ft 459kts
30-May-18 08:26 53.255137 -2.827551 125 36998ft 459kts
30-May-18 08:27 53.255137 -2.827551 125 36998ft 459kts
30-May-18 08:28 53.255137 -2.827551 125 36998ft 459kts
30-May-18 08:29 53.255137 -2.827551 125 36998ft 459kts
30-May-18 08:30 53.255137 -2.827551 125 36998ft 459kts
30-May-18 08:31 53.255137 -2.827551 125 36998ft 459kts
30-May-18 08:32 53.255137 -2.827551 125 36998ft 459kts
30-May-18 08:33 53.255137 -2.827551 125 36998ft 459kts
30-May-18 08:34 53.255137 -2.827551 125 36998ft 459kts
30-May-18 08:35 53.255137 -2.827551 125 36998ft 459kts
30-May-18 08:36 53.255137 -2.827551 125 36998ft 459kts
30-May-18 08:37 53.255137 -2.827551 125 36998ft 459kts
30-May-18 08:38 53.255137 -2.827551 125 36998ft 459kts
30-May-18 08:39 53.255137 -2.827551 125 36998ft 459kts
30-May-18 08:40 53.255137 -2.827551 125 36998ft 459kts
30-May-18 08:41 53.255137 -2.827551 125 36998ft 459kts
30-May-18 08:42 53.255137 -2.827551 125 36998ft 459kts
30-May-18 08:43 53.255137 -2.827551 125 36998ft 459kts
30-May-18 08:44 53.255137 -2.827551 125 36998ft 459kts
30-May-18 08:45 53.255137 -2.827551 125 36998ft 459kts
30-May-18 08:46 53.255137 -2.827551 125 36998ft 459kts
30-May-18 08:47 53.255137 -2.827551 125 36998ft 459kts
30-May-18 08:48 53.255137 -2.827551 125 36998ft 459kts
30-May-18 08:49 53.255137 -2.827551 125 36998ft 459kts
30-May-18 08:50 53.255137 -2.827551 125 36998ft 459kts
30-May-18 08:51 53.255137 -2.827551 125 36998ft 459kts
30-May-18 08:52 53.255137 -2.827551 125 36998ft 459kts
30-May-18 08:53 53.255137 -2.827551 125 36998ft 459kts
30-May-18 08:54 53.255137 -2.827551 125 36998ft 459kts
30-May-18 08:55 53.255137 -2.827551 125 36998ft 459kts
30-May-18 08:56 53.255137 -2.827551 125 36998ft 459kts
30-May-18 08:57 53.255137 -2.827551 125 36998ft 459kts
30-May-18 08:58 53.255137 -2.827551 125 36998ft 459kts
30-May-18 08:59 53.255137 -2.827551 125 36998ft 459kts
30-May-18 09:00 53.255137 -2.827551 125 36998ft 459kts
30-May-18 09:01 53.255137 -2.827551 125 36998ft 459kts
30-May-18 09:02 53.255137 -2.827551 125 36998ft 459kts
30-May-18 09:03 53.255137 -2.827551 125 36998ft 459kts
30-May-18 09:04 53.255137 -2.827551 125 36998ft 459kts
30-May-18 09:05 53.255137 -2.827551 125 36998ft 459kts
30-May-18 09:06 53.255137 -2.827551 125 36998ft 459kts
30-May-18 09:07 53.255137 -2.827551 125 36998ft 459kts
30-May-18 09:08 53.255137 -2.827551 125 36998ft 459kts
30-May-18 09:09 53.255137 -2.827551 125 36998ft 459kts
30-May-18 09:10 53.255137 -2.827551 125 36998ft 459kts
30-May-18 09:11 53.255137 -2.827551 125 36998ft 459kts
30-May-18 09:12 53.255137 -2.827551 125 36998ft 459kts
30-May-18 09:13 53.255137 -2.827551 125 36998ft 459kts
30-May-18 09:14 53.255137 -2.827551 125 36998ft 459kts
30-May-18 09:15 53.255137 -2.827551 125 36998ft 459kts
30-May-18 09:16 53.255137 -2.827551 125 36998ft 459kts
30-May-18 09:17 53.255137 -2.827551 125 36998ft 459kts
30-May-18 09:18 53.255137 -2.827551 125 36998ft 459kts
30-May-18 09:19 53.255137 -2.827551 125 36998ft 459kts
30-May-18 09:20 53.255137 -2.827551 125 36998ft 459kts
30-May-18 09:21 53.255137 -2.827551 125 36998ft 459kts
30-May-18 09:22 53.255137 -2.827551 125 36998ft 459kts
30-May-18 09:23 53.255137 -2.827551 125 36998ft 459kts
30-May-18 09:24 53.255137 -2.827551 125 36998ft 459kts
30-May-18 09:25 53.255137 -2.827551 125 36998ft 459kts
30-May-18 09:26 53.255137 -2.827551 125 36998ft 459kts
30-May-18 09:27 53.255137 -2.827551 125 36998ft 459kts
30-May-18 09:28 53.255137 -2.827551 125 36998ft 459kts
30-May-18 09:29 53.255137 -2.827551 125 36998ft 459kts
30-May-18 09:30 53.255137 -2.827551 125 36998ft 459kts
30-May-18 09:31 53.255137 -2.827551 125 36998ft 459kts
30-May-18 09:32 53.255137 -2.827551 125 36998ft 459kts
30-May-18 09:33 53.255137 -2.827551 125 36998ft 459kts
30-May-18 09:34 53.255137 -2.827551 125 36998ft 459kts
30-May-18 09:35 53.255137 -2.827551 125 36998ft 459kts
30-May-18 09:36 53.255137 -2.827551 125 36998ft 459kts
30-May-18 09:37 53.255137 -2.827551 125 36998ft 459kts
30-May-18 09:38 53.255137 -2.827551 125 36998ft 459kts
30-May-18 09:39 53.255137 -2.827551 125 36998ft 459kts
30-May-18 09:40 53.255137 -2.827551 125 36998ft 459kts
30-May-18 09:41 53.255137 -2.827551 125 36998ft 459kts
30-May-18 09:42 53.255137 -2.827551 125 36998ft 459kts
30-May-18 09:43 53.255137 -2.827551 125 36998ft 459kts
30-May-18 09:44 53.255137 -2.827551 125 36998ft 459kts
30-May-18 09:45 53.255137 -2.827551 125 36998ft 459kts
30-May-18 09:46 53.255137 -2.827551 125 36998ft 459kts
30-May-18 09:47 53.255137 -2.827551 125 36998ft 459kts
30-May-18 09:48 53.255137 -2.827551 125 36998ft 459kts
30-May-18 09:49 53.255137 -2.827551 125 36998ft 459kts
30-May-18 09:50 53.255137 -2.827551 125 36998ft 459kts
30-May-18 09:51 53.255137 -2.827551 125 36998ft 459kts
30-May-18 09:52 53.255137 -2.827551 125 36998ft 459kts
30-May-18 09:53 53.255137 -2.827551 125 36998ft 459kts
30-May-18 09:54 53.255137 -2.827551 125 36998ft 459kts
30-May-18 09:55 53.255137 -2.827551 125 36998ft 459kts
30-May-18 09:56 53.255137 -2.827551 125 36998ft 459kts
30-May-18 09:57 53.255137 -2.827551 125 36998ft 459kts
30-May-18 09:58 53.255137 -2.827551 125 36998ft 459kts
30-May-18 09:59 53.255137 -2.827551 125 36998ft 459kts
30-May-18 10:00 53.255137 -2.827551 125 36998ft 459kts
30-May-18 10:01 53.255137 -2.827551 125 36998ft 459kts
30-May-18 10:02 53.255137 -2.827551 125 36998ft 459kts
30-May-18 10:03 53.255137 -2.827551 125 36998ft 459kts
30-May-18 10:04 53.255137 -2.827551 125 36998ft 459kts
30-May-18 10:05 53.255137 -2.827551 125 36998ft 459kts
30-May-18 10:06 53.255137 -2.827551 125 36998ft 459kts
30-May-18 10:07 53.255137 -2.827551 125 36998ft 459kts
30-May-18 10:08 53.255137 -2.827551 125 36998ft 459kts
30-May-18 10:09 53.255137 -2.827551 125 36998ft 459kts
30-May-18 10:10 53.255137 -2.827551 125 36998ft 459kts
30-May-18 10:11 53.255137 -2.827551 125 36998ft 459kts
30-May-18 10:12 53.255137 -2.827551 125 36998ft 459kts
30-May-18 10:13 53.255137 -2.827551 125 36998ft 459kts
30-May-18 10:14 53.255137 -2.827551 125 36998ft 459kts
30-May-18 10:15 53.255137 -2.827551 125 36998ft 459kts
30-May-18 10:16 53.255137 -2.827551 125 36998ft 459kts
30-May-18 10:17 53.255137 -2.827551 125 36998ft 459kts
30-May-18 10:18 53.255137 -2.827551 125 36998ft 459kts
30-May-18 10:19 53.255137 -2.827551 125 36998ft 459kts
30-May-18 10:20 53.255137 -2.827551 125 36998ft 459kts
30-May-18 10:21 53.255137 -2.827551 125 36998ft 459kts
30-May-18 10:22 53.255137 -2.827551 125 36998ft 459kts
30-May-18 10:23 53.255137 -2.827551 125 36998ft 459kts
30-May-18 10:24 53.255137 -2.827551 125 36998ft 459kts
30-May-18 10:25 53.255137 -2.827551 125 36998ft 459kts
30-May-18 10:26 53.255137 -2.827551 125 36998ft 459kts
30-May-18 10:27 53.255137 -2.827551 125 36998ft 459kts
30-May-18 10:28 53.255137 -2.827551 125 36998ft 459kts
30-May-18 10:29 53.255137 -2.827551 125 36998ft 459kts
30-May-18 10:30 53.255137 -2.827551 125 36998ft 459kts
30-May-18 10:31 53.255137 -2.827551 125 36998ft 459kts
30-May-18 10:32 53.255137 -2.827551 125 36998ft 459kts
30-May-18 10:33 53.255137 -2.827551 125 36998ft 459kts
30-May-18 10:34 53.255137 -2.827551 125 36998ft 459kts
30-May-18 10:35 53.255137 -2.827551 125 36998ft 459kts
30-May-18 10:36 53.255137 -2.827551 125 36998ft 459kts
30-May-18 10:37 53.241827 -2.797878 126 37017ft 461kts
30-May-18 10:38 53.241827 -2.797878 126 37017ft 461kts
30-May-18 10:39 53.220554 -2.750642 126 37031ft 461kts
30-May-18 10:40 53.142977 -2.578651 125 35081ft 465kts
30-May-18 10:41 53.069386 -2.400812 124 33278ft 466kts
30-May-18 10:42 52.979175 -2.250162 144 31587ft 459kts
30-May-18 10:43 52.871897 -2.139604 146 29935ft 450kts
30-May-18 10:44 52.767007 -2.030002 147 28369ft 440kts
30-May-18 10:45 52.664573 -1.923827 147 26831ft 430kts
30-May-18 10:46 52.564186 -1.820341 148 25270ft 422kts
30-May-18 10:47 52.465213 -1.718867 148 23731ft 413kts
30-May-18 10:48 52.368762 -1.620502 148 22318ft 404kts
30-May-18 10:49 52.274053 -1.524405 148 20824ft 396kts
30-May-18 10:50 52.185206 -1.422739 140 19366ft 388kts
30-May-18 10:51 52.104603 -1.309902 140 17864ft 377kts
30-May-18 10:52 52.025519 -1.200120 140 16269ft 369kts
30-May-18 10:53 51.948227 -1.093340 140 14903ft 362kts
30-May-18 10:54 51.873979 -0.991287 140 12721ft 336kts
30-May-18 10:55 51.825417 -0.873671 116 10907ft 301kts
30-May-18 10:56 51.791414 -0.760669 118 9953ft 270kts
30-May-18 10:57 51.757973 -0.652383 117 8945ft 269kts
30-May-18 10:58 51.724382 -0.549852 137 7968ft 250kts
30-May-18 10:59 51.662265 -0.542264 178 7218ft 228kts
30-May-18 11:00 51.617206 -0.587179 240 7020ft 200kts
30-May-18 11:01 51.597978 -0.669615 261 6834ft 200kts
30-May-18 11:02 51.592003 -0.758323 249 5990ft 200kts
30-May-18 11:03 51.544873 -0.790263 181 4804ft 202kts
30-May-18 11:04 51.490650 -0.781644 130 3341ft 206kts
30-May-18 11:05 51.475985 -0.702666 87 2768ft 190kts
30-May-18 11:06 51.477062 -0.622096 89 1754ft 161kts
30-May-18 11:07 51.477248 -0.555098 88 961ft 146kts
30-May-18 11:08 51.477438 -0.489972 87 169ft 144kts
30-May-18 11:09 51.477464 -0.455218 112 96ft 19kts
30-May-18 11:10 51.475954 -0.459759 270 96ft 22kts
30-May-18 11:11 51.475844 -0.472188 267 96ft 24kts
30-May-18 11:12 51.474538 -0.478732 179 96ft 16kts
30-May-18 11:13 51.471309 -0.478628 134 96ft 3kts
30-May-18 11:14 51.471233 -0.477273 90 96ft 0kts
30-May-18 11:15 51.471233 -0.477273 90 96ft 0kts
30-May-18 11:16 51.471233 -0.477273 90 96ft 0kts
30-May-18 11:17 51.471233 -0.477273 90 96ft 0kts
30-May-18 11:18 51.471233 -0.477273 90 96ft 0kts
30-May-18 11:19 51.471233 -0.477273 90 96ft 0kts
30-May-18 11:20 51.471233 -0.477273 90 96ft 0kts
30-May-18 11:21 51.471233 -0.477273 90 96ft 0kts
30-May-18 11:22 51.471233 -0.477273 90 96ft 0kts

Navigation Log

Ident Type
Flight plan parsing failed, navigation log unavailable